sensor_id;sensor_type;location;lat;lon;timestamp;P1;durP1;ratioP1;P2;durP2;ratioP2
58244;SDS011;44550;43.864;25.986;2022-08-19T01:42:37;13.65;;;11.80;;
58244;SDS011;44550;43.864;25.986;2022-08-19T01:46:55;13.18;;;10.57;;
58244;SDS011;44550;43.864;25.986;2022-08-19T01:51:49;13.07;;;11.75;;
58244;SDS011;44550;43.864;25.986;2022-08-19T01:56:30;13.65;;;12.27;;
58244;SDS011;44550;43.864;25.986;2022-08-19T02:23:48;14.68;;;11.60;;
58244;SDS011;44550;43.864;25.986;2022-08-19T02:49:42;17.33;;;12.35;;
58244;SDS011;44550;43.864;25.986;2022-08-19T03:00:02;18.15;;;13.73;;
58244;SDS011;44550;43.864;25.986;2022-08-19T03:09:26;19.42;;;13.20;;
58244;SDS011;44550;43.864;25.986;2022-08-19T03:18:48;24.75;;;13.27;;
58244;SDS011;44550;43.864;25.986;2022-08-19T03:23:35;20.15;;;13.05;;
58244;SDS011;44550;43.864;25.986;2022-08-19T03:32:09;16.90;;;12.52;;
58244;SDS011;44550;43.864;25.986;2022-08-19T03:35:13;20.77;;;13.00;;
58244;SDS011;44550;43.864;25.986;2022-08-19T03:44:35;19.90;;;12.40;;
58244;SDS011;44550;43.864;25.986;2022-08-19T03:49:10;19.73;;;12.82;;
58244;SDS011;44550;43.864;25.986;2022-08-19T03:53:45;28.58;;;13.23;;
58244;SDS011;44550;43.864;25.986;2022-08-19T04:08:13;32.53;;;14.68;;
58244;SDS011;44550;43.864;25.986;2022-08-19T04:17:20;20.23;;;14.00;;
58244;SDS011;44550;43.864;25.986;2022-08-19T04:57:45;16.40;;;14.32;;
58244;SDS011;44550;43.864;25.986;2022-08-19T05:26:26;33.75;;;18.42;;
58244;SDS011;44550;43.864;25.986;2022-08-19T05:31:17;30.35;;;17.52;;
58244;SDS011;44550;43.864;25.986;2022-08-19T05:41:09;43.23;;;25.47;;
58244;SDS011;44550;43.864;25.986;2022-08-19T06:01:45;18.58;;;12.90;;
58244;SDS011;44550;43.864;25.986;2022-08-19T06:28:57;16.05;;;10.18;;
58244;SDS011;44550;43.864;25.986;2022-08-19T06:51:31;12.55;;;8.68;;
58244;SDS011;44550;43.864;25.986;2022-08-19T06:56:04;18.55;;;9.90;;
58244;SDS011;44550;43.864;25.986;2022-08-19T07:00:21;10.80;;;7.95;;
58244;SDS011;44550;43.864;25.986;2022-08-19T07:04:57;12.70;;;8.65;;
58244;SDS011;44550;43.864;25.986;2022-08-19T07:09:08;10.15;;;9.05;;
58244;SDS011;44550;43.864;25.986;2022-08-19T08:47:56;8.50;;;7.28;;
58244;SDS011;44550;43.864;25.986;2022-08-19T08:52:21;8.63;;;6.93;;
58244;SDS011;44550;43.864;25.986;2022-08-19T08:56:33;9.25;;;6.85;;
58244;SDS011;44550;43.864;25.986;2022-08-19T09:00:37;9.63;;;7.43;;
58244;SDS011;44550;43.864;25.986;2022-08-19T09:04:48;9.27;;;7.30;;
58244;SDS011;44550;43.864;25.986;2022-08-19T09:08:52;14.80;;;7.55;;
58244;SDS011;44550;43.864;25.986;2022-08-19T09:13:10;8.43;;;7.32;;
58244;SDS011;44550;43.864;25.986;2022-08-19T09:17:21;12.48;;;6.70;;
58244;SDS011;44550;43.864;25.986;2022-08-19T09:21:26;11.45;;;7.95;;
58244;SDS011;44550;43.864;25.986;2022-08-19T09:25:30;16.08;;;10.15;;
58244;SDS011;44550;43.864;25.986;2022-08-19T09:29:31;10.00;;;8.27;;
58244;SDS011;44550;43.864;25.986;2022-08-19T09:33:30;12.52;;;6.68;;
58244;SDS011;44550;43.864;25.986;2022-08-19T09:37:32;11.77;;;7.55;;
58244;SDS011;44550;43.864;25.986;2022-08-19T09:42:50;9.23;;;7.28;;
58244;SDS011;44550;43.864;25.986;2022-08-19T09:46:56;9.93;;;7.78;;
58244;SDS011;44550;43.864;25.986;2022-08-19T09:51:48;12.27;;;7.63;;
58244;SDS011;44550;43.864;25.986;2022-08-19T09:56:11;16.75;;;14.13;;
58244;SDS011;44550;43.864;25.986;2022-08-19T10:00:16;11.88;;;7.70;;
58244;SDS011;44550;43.864;25.986;2022-08-19T17:05:08;13.98;;;7.43;;
58244;SDS011;44550;43.864;25.986;2022-08-19T17:09:09;14.55;;;8.77;;
58244;SDS011;44550;43.864;25.986;2022-08-19T17:13:23;18.75;;;7.72;;
58244;SDS011;44550;43.864;25.986;2022-08-19T17:17:35;12.00;;;7.97;;
58244;SDS011;44550;43.864;25.986;2022-08-19T17:21:37;10.90;;;8.57;;
58244;SDS011;44550;43.864;25.986;2022-08-19T17:25:39;8.50;;;7.05;;
58244;SDS011;44550;43.864;25.986;2022-08-19T17:31:00;72.75;;;23.27;;
58244;SDS011;44550;43.864;25.986;2022-08-19T17:38:09;10.20;;;7.65;;
58244;SDS011;44550;43.864;25.986;2022-08-19T17:58:21;18.77;;;12.52;;
58244;SDS011;44550;43.864;25.986;2022-08-19T18:12:32;15.52;;;7.43;;
58244;SDS011;44550;43.864;25.986;2022-08-19T18:23:17;19.38;;;8.73;;
58244;SDS011;44550;43.864;25.986;2022-08-19T18:29:59;11.10;;;8.57;;
58244;SDS011;44550;43.864;25.986;2022-08-19T18:33:01;13.15;;;8.40;;
58244;SDS011;44550;43.864;25.986;2022-08-19T18:37:15;11.30;;;8.20;;
58244;SDS011;44550;43.864;25.986;2022-08-19T18:41:30;13.48;;;8.57;;
58244;SDS011;44550;43.864;25.986;2022-08-19T18:45:45;14.27;;;7.40;;
58244;SDS011;44550;43.864;25.986;2022-08-19T18:50:07;14.45;;;8.45;;
58244;SDS011;44550;43.864;25.986;2022-08-19T18:54:16;13.68;;;8.00;;
58244;SDS011;44550;43.864;25.986;2022-08-19T18:58:23;16.33;;;7.78;;
58244;SDS011;44550;43.864;25.986;2022-08-19T19:02:43;10.05;;;6.72;;
58244;SDS011;44550;43.864;25.986;2022-08-19T19:06:51;10.57;;;7.45;;
58244;SDS011;44550;43.864;25.986;2022-08-19T19:11:06;13.82;;;7.32;;
58244;SDS011;44550;43.864;25.986;2022-08-19T19:15:08;11.38;;;7.45;;
58244;SDS011;44550;43.864;25.986;2022-08-19T19:19:08;11.07;;;7.20;;
58244;SDS011;44550;43.864;25.986;2022-08-19T19:23:15;7.35;;;5.65;;
58244;SDS011;44550;43.864;25.986;2022-08-19T19:27:17;15.30;;;7.05;;
58244;SDS011;44550;43.864;25.986;2022-08-19T19:31:21;13.70;;;7.22;;
58244;SDS011;44550;43.864;25.986;2022-08-19T19:35:23;15.38;;;7.85;;
58244;SDS011;44550;43.864;25.986;2022-08-19T19:39:22;19.58;;;8.82;;
58244;SDS011;44550;43.864;25.986;2022-08-19T19:43:43;9.63;;;7.00;;
58244;SDS011;44550;43.864;25.986;2022-08-19T19:48:03;15.90;;;6.22;;
58244;SDS011;44550;43.864;25.986;2022-08-19T19:52:04;14.52;;;7.78;;
58244;SDS011;44550;43.864;25.986;2022-08-19T19:56:09;14.85;;;6.95;;
58244;SDS011;44550;43.864;25.986;2022-08-19T20:00:09;14.73;;;6.28;;
58244;SDS011;44550;43.864;25.986;2022-08-19T20:04:13;12.25;;;6.95;;
58244;SDS011;44550;43.864;25.986;2022-08-19T20:08:13;10.40;;;6.10;;
58244;SDS011;44550;43.864;25.986;2022-08-19T20:12:29;8.85;;;5.93;;
58244;SDS011;44550;43.864;25.986;2022-08-19T20:16:29;13.90;;;7.05;;
58244;SDS011;44550;43.864;25.986;2022-08-19T20:20:32;9.95;;;6.60;;
58244;SDS011;44550;43.864;25.986;2022-08-19T20:24:32;9.80;;;5.90;;
58244;SDS011;44550;43.864;25.986;2022-08-19T20:34:56;13.98;;;6.53;;
58244;SDS011;44550;43.864;25.986;2022-08-19T21:31:20;13.75;;;7.57;;
58244;SDS011;44550;43.864;25.986;2022-08-19T21:35:43;13.37;;;7.43;;
58244;SDS011;44550;43.864;25.986;2022-08-19T21:39:43;14.73;;;8.30;;
58244;SDS011;44550;43.864;25.986;2022-08-19T21:43:47;13.10;;;7.25;;
58244;SDS011;44550;43.864;25.986;2022-08-19T21:47:50;8.23;;;6.95;;
58244;SDS011;44550;43.864;25.986;2022-08-19T21:51:50;18.35;;;7.32;;
58244;SDS011;44550;43.864;25.986;2022-08-19T21:55:49;14.77;;;7.80;;
58244;SDS011;44550;43.864;25.986;2022-08-19T21:59:52;13.65;;;8.38;;
58244;SDS011;44550;43.864;25.986;2022-08-19T22:03:51;14.20;;;6.82;;
58244;SDS011;44550;43.864;25.986;2022-08-19T22:07:51;10.25;;;7.55;;
58244;SDS011;44550;43.864;25.986;2022-08-19T22:11:54;14.60;;;6.88;;
58244;SDS011;44550;43.864;25.986;2022-08-19T22:15:55;10.43;;;7.25;;
58244;SDS011;44550;43.864;25.986;2022-08-19T22:19:55;11.30;;;6.43;;
58244;SDS011;44550;43.864;25.986;2022-08-19T22:23:55;11.70;;;7.82;;
58244;SDS011;44550;43.864;25.986;2022-08-19T22:27:55;10.77;;;6.38;;
58244;SDS011;44550;43.864;25.986;2022-08-19T22:31:58;10.27;;;7.68;;
58244;SDS011;44550;43.864;25.986;2022-08-19T22:36:17;10.57;;;6.68;;
58244;SDS011;44550;43.864;25.986;2022-08-19T22:40:17;12.80;;;6.82;;
58244;SDS011;44550;43.864;25.986;2022-08-19T22:44:17;12.10;;;7.10;;
58244;SDS011;44550;43.864;25.986;2022-08-19T22:48:20;9.90;;;6.93;;
58244;SDS011;44550;43.864;25.986;2022-08-19T22:52:21;11.00;;;7.47;;
58244;SDS011;44550;43.864;25.986;2022-08-19T22:56:20;11.95;;;6.05;;
58244;SDS011;44550;43.864;25.986;2022-08-19T23:00:20;11.43;;;7.65;;
58244;SDS011;44550;43.864;25.986;2022-08-19T23:04:24;14.38;;;6.82;;
58244;SDS011;44550;43.864;25.986;2022-08-19T23:08:24;7.90;;;6.53;;
58244;SDS011;44550;43.864;25.986;2022-08-19T23:12:24;14.88;;;7.68;;
58244;SDS011;44550;43.864;25.986;2022-08-19T23:16:26;12.23;;;7.07;;
58244;SDS011;44550;43.864;25.986;2022-08-19T23:20:29;11.45;;;7.35;;
58244;SDS011;44550;43.864;25.986;2022-08-19T23:24:31;13.23;;;7.93;;
58244;SDS011;44550;43.864;25.986;2022-08-19T23:28:31;9.77;;;7.68;;
58244;SDS011;44550;43.864;25.986;2022-08-19T23:32:49;10.25;;;6.95;;
58244;SDS011;44550;43.864;25.986;2022-08-19T23:36:50;8.48;;;7.45;;
58244;SDS011;44550;43.864;25.986;2022-08-19T23:40:50;14.13;;;7.85;;
58244;SDS011;44550;43.864;25.986;2022-08-19T23:44:52;10.15;;;7.22;;
58244;SDS011;44550;43.864;25.986;2022-08-19T23:48:57;11.00;;;7.28;;
58244;SDS011;44550;43.864;25.986;2022-08-19T23:52:59;19.13;;;7.82;;
58244;SDS011;44550;43.864;25.986;2022-08-19T23:56:59;11.60;;;7.57;;
